Time;durP1;ratioP1;P1;durP2;ratioP2;P2;SDS_P1;SDS_P2;PMS_P1;PMS_P2;Temp;Humidity;BMP_temperature;BMP_pressure;BME280_temperature;BME280_humidity;BME280_pressure;Samples;Min_cycle;Max_cycle;Signal;HPM_P1;HPM_P2
2021/04/26 00:00:19;;;;;;;5.13;1.70;;;;;;;;;;5096514;28;20016;-69
2021/04/26 00:02:45;;;;;;;4.55;2.22;;;;;;;;;;5093040;28;20028;-68
2021/04/26 00:05:12;;;;;;;4.40;1.90;;;;;;;;;;5097569;28;20057;-68
2021/04/26 00:07:38;;;;;;;4.55;2.00;;;;;;;;;;5107397;28;20062;-68
2021/04/26 00:10:05;;;;;;;5.07;1.88;;;;;;;;;;5098726;28;20509;-67
2021/04/26 00:12:31;;;;;;;5.53;2.20;;;;;;;;;;5105967;28;20030;-69
2021/04/26 00:14:57;;;;;;;7.57;2.28;;;;;;;;;;5094126;28;20024;-69
2021/04/26 00:17:23;;;;;;;4.85;2.28;;;;;;;;;;5088042;28;20069;-69
2021/04/26 00:19:49;;;;;;;6.13;2.33;;;;;;;;;;5095428;28;20019;-68
2021/04/26 00:22:15;;;;;;;5.82;2.20;;;;;;;;;;5103087;28;20028;-68
2021/04/26 00:24:41;;;;;;;4.63;2.28;;;;;;;;;;5107257;28;20028;-69
2021/04/26 00:27:08;;;;;;;5.32;2.50;;;;;;;;;;5107987;28;20128;-68
2021/04/26 00:29:34;;;;;;;5.40;2.03;;;;;;;;;;5109132;28;20042;-68
2021/04/26 00:32:00;;;;;;;7.10;2.40;;;;;;;;;;5101128;28;20019;-69
2021/04/26 00:34:26;;;;;;;5.32;2.33;;;;;;;;;;5101481;28;20027;-68
2021/04/26 00:36:52;;;;;;;5.00;2.17;;;;;;;;;;5080997;28;20029;-70
2021/04/26 00:39:19;;;;;;;5.38;2.28;;;;;;;;;;5124525;27;20062;-68
2021/04/26 00:41:45;;;;;;;5.15;2.33;;;;;;;;;;5098903;28;20036;-69
2021/04/26 00:44:11;;;;;;;5.88;2.28;;;;;;;;;;5098954;28;20489;-68
2021/04/26 00:46:37;;;;;;;8.00;2.20;;;;;;;;;;5114865;27;20039;-73
2021/04/26 00:49:03;;;;;;;5.18;2.05;;;;;;;;;;5096130;28;20020;-68
2021/04/26 00:51:29;;;;;;;7.03;2.20;;;;;;;;;;5109193;28;20074;-68
2021/04/26 00:53:55;;;;;;;4.75;2.05;;;;;;;;;;5099925;28;20197;-69
2021/04/26 00:56:21;;;;;;;4.50;2.10;;;;;;;;;;5094075;28;20024;-69
2021/04/26 00:58:48;;;;;;;7.20;2.03;;;;;;;;;;5096425;28;20038;-71
2021/04/26 01:01:17;;;;;;;5.65;1.98;;;;;;;;;;5107991;28;20078;-69
2021/04/26 01:03:43;;;;;;;6.65;2.05;;;;;;;;;;5107049;28;20016;-68
2021/04/26 01:06:09;;;;;;;5.13;2.50;;;;;;;;;;5092803;28;20513;-68
2021/04/26 01:08:35;;;;;;;4.55;2.08;;;;;;;;;;5087778;28;20020;-68
2021/04/26 01:11:01;;;;;;;7.28;2.42;;;;;;;;;;5106004;28;20028;-68
2021/04/26 01:13:37;;;;;;;4.50;2.08;;;;;;;;;;5095880;28;20019;-68
2021/04/26 01:16:23;;;;;;;6.10;2.20;;;;;;;;;;5103619;28;20016;-68
2021/04/26 01:18:49;;;;;;;4.40;2.00;;;;;;;;;;5089871;28;20035;-69
2021/04/26 01:21:18;;;;;;;5.95;2.17;;;;;;;;;;5122825;27;20384;-71
2021/04/26 01:24:03;;;;;;;4.68;1.90;;;;;;;;;;5089711;28;20023;-72
2021/04/26 01:26:29;;;;;;;5.50;2.13;;;;;;;;;;5097702;28;20061;-68
2021/04/26 01:29:15;;;;;;;6.13;2.20;;;;;;;;;;5096441;28;20017;-69
2021/04/26 01:31:52;;;;;;;4.45;1.92;;;;;;;;;;5080485;28;20020;-69
2021/04/26 01:34:18;;;;;;;3.58;1.73;;;;;;;;;;5072576;28;20059;-68
2021/04/26 01:36:45;;;;;;;8.85;1.90;;;;;;;;;;5076698;28;20032;-68
2021/04/26 01:39:12;;;;;;;7.13;1.90;;;;;;;;;;5105260;28;20011;-68
2021/04/26 01:41:39;;;;;;;9.70;2.10;;;;;;;;;;5088928;28;20043;-74
2021/04/26 01:44:06;;;;;;;5.13;2.30;;;;;;;;;;5102781;28;20016;-71
2021/04/26 01:46:33;;;;;;;5.78;2.22;;;;;;;;;;5102887;28;20486;-69
2021/04/26 01:49:00;;;;;;;13.77;2.20;;;;;;;;;;5094134;28;20058;-68
2021/04/26 01:51:26;;;;;;;7.90;2.22;;;;;;;;;;5084238;28;20156;-69
2021/04/26 01:53:53;;;;;;;4.50;2.00;;;;;;;;;;5100359;28;20019;-68
2021/04/26 01:56:19;;;;;;;5.32;1.90;;;;;;;;;;5101057;28;20012;-69
2021/04/26 01:58:47;;;;;;;8.70;2.40;;;;;;;;;;5091789;28;20017;-69
2021/04/26 02:01:15;;;;;;;13.48;2.13;;;;;;;;;;5106346;28;20030;-70
2021/04/26 02:03:42;;;;;;;7.90;2.13;;;;;;;;;;5096824;28;20027;-69
2021/04/26 02:06:09;;;;;;;5.55;2.13;;;;;;;;;;5100665;28;20118;-68
2021/04/26 02:08:35;;;;;;;7.78;2.15;;;;;;;;;;5095890;28;20106;-69
2021/04/26 02:11:01;;;;;;;7.35;2.10;;;;;;;;;;5104906;28;20030;-68
2021/04/26 02:13:29;;;;;;;4.35;1.95;;;;;;;;;;5094585;28;20442;-68
2021/04/26 02:15:55;;;;;;;4.65;2.03;;;;;;;;;;5101156;28;20470;-72
2021/04/26 02:18:22;;;;;;;4.68;1.90;;;;;;;;;;5088564;28;20103;-70
2021/04/26 02:20:48;;;;;;;4.60;1.85;;;;;;;;;;5106095;28;20027;-68
2021/04/26 02:23:15;;;;;;;4.35;1.75;;;;;;;;;;5094503;28;20020;-68
2021/04/26 02:25:41;;;;;;;6.72;1.80;;;;;;;;;;5104286;28;20111;-68
2021/04/26 02:28:07;;;;;;;5.88;2.08;;;;;;;;;;5091868;28;20031;-69
2021/04/26 02:30:33;;;;;;;7.25;2.00;;;;;;;;;;5103973;28;20028;-70
2021/04/26 02:33:05;;;;;;;5.80;1.90;;;;;;;;;;5094901;28;20020;-68
2021/04/26 02:35:34;;;;;;;4.25;1.83;;;;;;;;;;5078941;28;20012;-67
2021/04/26 02:38:02;;;;;;;3.97;1.83;;;;;;;;;;5087489;28;20027;-68
2021/04/26 02:40:31;;;;;;;4.97;1.77;;;;;;;;;;5092597;28;20021;-69
2021/04/26 02:42:58;;;;;;;5.85;1.83;;;;;;;;;;5098968;28;20043;-69
2021/04/26 02:45:26;;;;;;;4.85;1.73;;;;;;;;;;5106695;28;20383;-68
2021/04/26 02:47:52;;;;;;;5.68;1.92;;;;;;;;;;5097232;28;20054;-68
2021/04/26 02:50:20;;;;;;;5.72;2.00;;;;;;;;;;5100234;28;20119;-69
2021/04/26 02:52:47;;;;;;;4.07;1.80;;;;;;;;;;5104941;28;20080;-68
2021/04/26 02:55:13;;;;;;;6.85;2.00;;;;;;;;;;5093931;28;20024;-68
2021/04/26 02:57:40;;;;;;;5.57;1.95;;;;;;;;;;5099886;28;20024;-68
2021/04/26 03:00:10;;;;;;;5.50;1.90;;;;;;;;;;5101157;28;20112;-69
2021/04/26 03:02:37;;;;;;;3.70;1.70;;;;;;;;;;5104095;28;20152;-69
2021/04/26 03:05:05;;;;;;;4.85;1.83;;;;;;;;;;5104097;28;20073;-68
2021/04/26 03:07:31;;;;;;;4.28;1.73;;;;;;;;;;5094034;28;20028;-69
2021/04/26 03:09:57;;;;;;;4.75;1.80;;;;;;;;;;5101738;28;20023;-68
2021/04/26 03:12:24;;;;;;;4.97;2.05;;;;;;;;;;5101956;28;20034;-68
2021/04/26 03:14:50;;;;;;;4.57;1.80;;;;;;;;;;5094281;28;20062;-68
2021/04/26 03:17:16;;;;;;;3.90;1.83;;;;;;;;;;5097810;28;20431;-68
2021/04/26 03:19:44;;;;;;;5.95;1.88;;;;;;;;;;5084598;28;20043;-69
2021/04/26 03:22:11;;;;;;;7.05;1.60;;;;;;;;;;5104510;28;20020;-68
2021/04/26 03:24:37;;;;;;;3.83;1.60;;;;;;;;;;5106880;28;20421;-73
2021/04/26 03:27:03;;;;;;;5.47;1.90;;;;;;;;;;5083735;28;20058;-69
2021/04/26 03:29:30;;;;;;;5.07;1.80;;;;;;;;;;5110048;28;20019;-69
2021/04/26 03:31:56;;;;;;;5.50;1.92;;;;;;;;;;5100896;28;20015;-69
2021/04/26 03:34:22;;;;;;;5.43;1.77;;;;;;;;;;5101805;28;20347;-68
2021/04/26 03:36:49;;;;;;;4.95;2.03;;;;;;;;;;5099113;28;20494;-68
2021/04/26 03:39:15;;;;;;;4.22;1.80;;;;;;;;;;5106418;28;20028;-68
2021/04/26 03:41:42;;;;;;;4.53;1.70;;;;;;;;;;5107924;28;20071;-68
2021/04/26 03:44:16;;;;;;;8.00;2.08;;;;;;;;;;5102285;28;20428;-68
2021/04/26 03:46:58;;;;;;;3.58;1.58;;;;;;;;;;5094927;28;20075;-69
2021/04/26 03:49:25;;;;;;;5.70;1.70;;;;;;;;;;5125388;27;20027;-69
2021/04/26 03:51:51;;;;;;;4.22;1.92;;;;;;;;;;5100242;28;20024;-68
2021/04/26 03:54:17;;;;;;;4.57;1.92;;;;;;;;;;5103442;28;20020;-72
2021/04/26 03:56:43;;;;;;;5.30;2.20;;;;;;;;;;5103578;28;20027;-68
2021/04/26 03:59:09;;;;;;;7.03;2.30;;;;;;;;;;5107948;28;20063;-68
2021/04/26 04:01:36;;;;;;;3.85;1.85;;;;;;;;;;5098312;28;20012;-68
2021/04/26 04:04:02;;;;;;;5.85;2.20;;;;;;;;;;5105429;28;20099;-71
2021/04/26 04:06:28;;;;;;;3.35;1.55;;;;;;;;;;5105420;28;20403;-68
2021/04/26 04:08:54;;;;;;;3.70;2.08;;;;;;;;;;5100554;28;20024;-72
2021/04/26 04:11:20;;;;;;;4.88;2.33;;;;;;;;;;5110213;28;20095;-69
2021/04/26 04:13:46;;;;;;;4.72;1.92;;;;;;;;;;5099544;28;20463;-68
2021/04/26 04:16:12;;;;;;;4.18;2.05;;;;;;;;;;5102371;28;20479;-72
2021/04/26 04:18:38;;;;;;;4.25;1.83;;;;;;;;;;5079902;28;20029;-68
2021/04/26 04:21:04;;;;;;;6.20;2.42;;;;;;;;;;5105644;28;20023;-68
2021/04/26 04:23:30;;;;;;;4.75;2.10;;;;;;;;;;5097138;28;20407;-68
2021/04/26 04:25:56;;;;;;;6.78;2.50;;;;;;;;;;5110337;28;20171;-68
2021/04/26 04:28:22;;;;;;;7.80;2.28;;;;;;;;;;5094664;28;20037;-69
2021/04/26 04:30:48;;;;;;;5.15;2.33;;;;;;;;;;5102390;28;20019;-68
2021/04/26 04:33:15;;;;;;;5.70;2.10;;;;;;;;;;5096643;28;20141;-69
2021/04/26 04:35:41;;;;;;;6.43;2.60;;;;;;;;;;5106569;28;20020;-73
2021/04/26 04:38:07;;;;;;;5.20;1.85;;;;;;;;;;5092881;28;20027;-72
2021/04/26 04:40:33;;;;;;;8.13;2.13;;;;;;;;;;5111229;28;20037;-68
2021/04/26 04:43:00;;;;;;;5.60;2.15;;;;;;;;;;5094620;28;20499;-69
2021/04/26 04:45:26;;;;;;;4.65;1.85;;;;;;;;;;5109628;28;20036;-70
2021/04/26 04:47:52;;;;;;;4.88;2.17;;;;;;;;;;5093293;28;20027;-76
2021/04/26 04:50:18;;;;;;;4.22;1.90;;;;;;;;;;5102255;28;20024;-71
2021/04/26 04:52:44;;;;;;;4.75;1.92;;;;;;;;;;5107082;28;20035;-69
2021/04/26 04:55:10;;;;;;;5.35;2.03;;;;;;;;;;5096153;28;20024;-70
2021/04/26 04:57:36;;;;;;;4.90;2.47;;;;;;;;;;5105430;28;20031;-69
2021/04/26 05:00:05;;;;;;;6.07;2.03;;;;;;;;;;5109367;28;20020;-70
2021/04/26 05:02:31;;;;;;;5.78;2.35;;;;;;;;;;5099980;28;20020;-68
2021/04/26 05:04:57;;;;;;;5.38;2.03;;;;;;;;;;5098652;28;20024;-69
2021/04/26 05:07:23;;;;;;;8.60;2.10;;;;;;;;;;5105032;28;20062;-71
2021/04/26 05:09:49;;;;;;;4.78;1.80;;;;;;;;;;5104958;28;20016;-69
2021/04/26 05:12:15;;;;;;;5.70;2.17;;;;;;;;;;5102282;28;20028;-70
2021/04/26 05:14:42;;;;;;;4.20;1.70;;;;;;;;;;5098645;28;20374;-69
2021/04/26 05:17:09;;;;;;;6.47;2.05;;;;;;;;;;5091438;28;20020;-69
2021/04/26 05:19:35;;;;;;;6.78;2.08;;;;;;;;;;5106575;28;20161;-73
2021/04/26 05:22:02;;;;;;;7.47;2.20;;;;;;;;;;5099128;28;20529;-69
2021/04/26 05:24:28;;;;;;;5.07;2.05;;;;;;;;;;5100721;28;20107;-73
2021/04/26 05:26:54;;;;;;;6.18;2.40;;;;;;;;;;5107830;28;20031;-71
2021/04/26 05:29:20;;;;;;;15.77;2.00;;;;;;;;;;5081315;28;20028;-68
2021/04/26 05:31:46;;;;;;;7.85;2.25;;;;;;;;;;5105970;28;20421;-68
2021/04/26 05:34:12;;;;;;;9.75;2.53;;;;;;;;;;5100706;28;20027;-68
2021/04/26 05:36:38;;;;;;;5.78;2.10;;;;;;;;;;5098822;28;20091;-72
2021/04/26 05:39:05;;;;;;;10.55;2.58;;;;;;;;;;5087904;28;20016;-68
2021/04/26 05:41:31;;;;;;;7.32;2.67;;;;;;;;;;5083457;28;20036;-69
2021/04/26 05:43:57;;;;;;;13.18;2.85;;;;;;;;;;5104172;28;20091;-69
2021/04/26 05:46:24;;;;;;;13.60;2.60;;;;;;;;;;5102958;28;20105;-70
2021/04/26 05:48:50;;;;;;;5.43;2.28;;;;;;;;;;5090200;28;20025;-70
2021/04/26 05:51:17;;;;;;;5.90;2.33;;;;;;;;;;5097218;28;20059;-70
2021/04/26 05:53:43;;;;;;;9.63;2.58;;;;;;;;;;5106184;28;20050;-70
2021/04/26 05:56:09;;;;;;;6.82;2.33;;;;;;;;;;5100625;28;20082;-70
2021/04/26 05:58:35;;;;;;;6.80;2.65;;;;;;;;;;5098148;28;20027;-70
2021/04/26 06:01:01;;;;;;;9.80;2.45;;;;;;;;;;5086090;28;20024;-75
2021/04/26 06:03:27;;;;;;;9.63;2.30;;;;;;;;;;5093466;28;20023;-76
2021/04/26 06:05:54;;;;;;;6.80;2.50;;;;;;;;;;5094818;28;20052;-74
2021/04/26 06:08:20;;;;;;;17.42;2.65;;;;;;;;;;5078947;28;20108;-73
2021/04/26 06:10:46;;;;;;;10.85;2.67;;;;;;;;;;5091449;28;20039;-77
2021/04/26 06:13:13;;;;;;;7.40;2.67;;;;;;;;;;5084835;28;20745;-78
2021/04/26 06:15:39;;;;;;;7.88;2.42;;;;;;;;;;5077639;28;20024;-70
2021/04/26 06:18:11;;;;;;;5.70;2.80;;;;;;;;;;5081965;28;20391;-73
2021/04/26 06:20:37;;;;;;;12.07;3.10;;;;;;;;;;5091266;28;20012;-71
2021/04/26 06:23:03;;;;;;;6.82;2.55;;;;;;;;;;5089685;28;20173;-77
2021/04/26 06:25:30;;;;;;;6.47;2.53;;;;;;;;;;5088640;28;20028;-73
2021/04/26 06:27:56;;;;;;;10.20;2.40;;;;;;;;;;5091004;28;20051;-72
2021/04/26 06:30:22;;;;;;;5.60;2.20;;;;;;;;;;5089756;28;20024;-73
2021/04/26 06:32:49;;;;;;;12.48;2.65;;;;;;;;;;5091378;28;20062;-85
2021/04/26 06:35:15;;;;;;;13.85;2.53;;;;;;;;;;5091471;28;20023;-75
2021/04/26 06:37:41;;;;;;;7.35;2.30;;;;;;;;;;5091441;28;20028;-79
2021/04/26 06:40:07;;;;;;;6.82;1.90;;;;;;;;;;5092047;28;20052;-72
2021/04/26 06:42:33;;;;;;;8.00;2.28;;;;;;;;;;5088655;28;20498;-74
2021/04/26 06:44:59;;;;;;;8.07;2.75;;;;;;;;;;5110705;28;20019;-69
2021/04/26 06:47:25;;;;;;;4.95;2.40;;;;;;;;;;5107027;28;20031;-77
2021/04/26 06:49:51;;;;;;;5.60;2.50;;;;;;;;;;5106724;28;20020;-73
2021/04/26 06:52:17;;;;;;;10.02;2.85;;;;;;;;;;5069524;28;20037;-72
2021/04/26 06:54:43;;;;;;;10.45;2.15;;;;;;;;;;5088571;28;20078;-75
2021/04/26 06:57:10;;;;;;;11.15;2.88;;;;;;;;;;5073607;28;20111;-74
2021/04/26 06:59:36;;;;;;;6.30;2.60;;;;;;;;;;5096765;28;20023;-74
2021/04/26 07:02:02;;;;;;;5.57;1.95;;;;;;;;;;5101252;28;20051;-76
2021/04/26 07:04:28;;;;;;;5.57;2.22;;;;;;;;;;5096269;28;20450;-74
2021/04/26 07:06:54;;;;;;;5.13;2.20;;;;;;;;;;5110248;28;20076;-74
2021/04/26 07:09:20;;;;;;;6.25;2.25;;;;;;;;;;5097815;28;20024;-75
2021/04/26 07:11:46;;;;;;;8.73;2.13;;;;;;;;;;5105566;28;20028;-77
2021/04/26 07:14:12;;;;;;;5.22;1.55;;;;;;;;;;5101974;28;20024;-75
2021/04/26 07:16:38;;;;;;;4.38;1.88;;;;;;;;;;5086973;28;20025;-77
2021/04/26 07:19:05;;;;;;;5.57;2.00;;;;;;;;;;5122414;27;20020;-80
2021/04/26 07:21:31;;;;;;;6.10;2.15;;;;;;;;;;5099352;27;20020;-75
2021/04/26 07:23:57;;;;;;;5.88;2.17;;;;;;;;;;5102915;28;20398;-73
2021/04/26 07:26:23;;;;;;;4.68;1.85;;;;;;;;;;5081002;28;20036;-72
2021/04/26 07:28:49;;;;;;;6.68;2.00;;;;;;;;;;5094064;28;20052;-74
2021/04/26 07:31:15;;;;;;;6.57;2.20;;;;;;;;;;5094666;28;20386;-75
2021/04/26 07:33:41;;;;;;;4.40;1.85;;;;;;;;;;5097240;28;20020;-79
2021/04/26 07:36:07;;;;;;;4.53;1.60;;;;;;;;;;5088459;28;20012;-70
2021/04/26 07:38:34;;;;;;;5.55;1.58;;;;;;;;;;5088554;28;20375;-68
2021/04/26 07:41:01;;;;;;;4.88;1.95;;;;;;;;;;5104378;28;20040;-69
2021/04/26 07:43:27;;;;;;;5.80;2.33;;;;;;;;;;5089236;28;20023;-73
2021/04/26 07:45:53;;;;;;;9.48;2.30;;;;;;;;;;5101563;28;20027;-75
2021/04/26 07:48:20;;;;;;;7.53;2.20;;;;;;;;;;5092105;28;20080;-75
2021/04/26 07:50:46;;;;;;;8.95;2.13;;;;;;;;;;5093495;28;20402;-71
2021/04/26 07:53:12;;;;;;;5.63;2.28;;;;;;;;;;5104416;28;20047;-74
2021/04/26 07:55:38;;;;;;;6.10;2.00;;;;;;;;;;5102776;27;20015;-72
2021/04/26 07:58:05;;;;;;;4.65;1.92;;;;;;;;;;5108749;28;20016;-68
2021/04/26 08:00:31;;;;;;;3.75;1.85;;;;;;;;;;5099628;28;20016;-68
2021/04/26 08:02:57;;;;;;;9.35;2.60;;;;;;;;;;5109780;28;20424;-71
2021/04/26 08:05:24;;;;;;;5.43;1.83;;;;;;;;;;5110538;28;20438;-71
2021/04/26 08:07:50;;;;;;;8.77;1.83;;;;;;;;;;5104657;28;20027;-68
2021/04/26 08:10:16;;;;;;;14.75;2.80;;;;;;;;;;5090871;28;20017;-73
2021/04/26 08:12:42;;;;;;;5.03;1.70;;;;;;;;;;5078964;28;20028;-74
2021/04/26 08:15:10;;;;;;;8.60;1.90;;;;;;;;;;5085339;28;20027;-76
2021/04/26 08:17:36;;;;;;;7.13;1.50;;;;;;;;;;5103742;28;20036;-74
2021/04/26 08:20:04;;;;;;;9.95;1.55;;;;;;;;;;5098733;27;20028;-75
2021/04/26 08:22:30;;;;;;;12.02;1.88;;;;;;;;;;5106968;28;20024;-74
2021/04/26 08:24:56;;;;;;;6.28;1.77;;;;;;;;;;5094936;28;20383;-76
2021/04/26 08:27:22;;;;;;;10.27;1.67;;;;;;;;;;5103388;28;20028;-75
2021/04/26 08:29:48;;;;;;;3.97;1.80;;;;;;;;;;5089057;28;20039;-75
2021/04/26 08:32:14;;;;;;;5.25;1.70;;;;;;;;;;5099729;28;20093;-75
2021/04/26 08:34:40;;;;;;;7.18;1.60;;;;;;;;;;5101938;28;20028;-75
2021/04/26 08:37:06;;;;;;;5.70;1.75;;;;;;;;;;5109713;28;20027;-75
2021/04/26 08:39:32;;;;;;;6.38;1.50;;;;;;;;;;5098491;28;20016;-73
2021/04/26 08:41:59;;;;;;;4.65;1.98;;;;;;;;;;5101757;28;20924;-75
2021/04/26 08:44:25;;;;;;;4.03;1.67;;;;;;;;;;5095634;28;20066;-75
2021/04/26 08:46:51;;;;;;;4.30;1.60;;;;;;;;;;5106094;28;20035;-75
2021/04/26 08:49:18;;;;;;;6.35;1.60;;;;;;;;;;5096684;28;20015;-75
2021/04/26 08:51:44;;;;;;;5.13;1.60;;;;;;;;;;5108419;28;20034;-76
2021/04/26 08:54:13;;;;;;;5.68;1.42;;;;;;;;;;5108946;28;20019;-75
2021/04/26 08:56:39;;;;;;;13.52;2.55;;;;;;;;;;5096400;28;20077;-78
2021/04/26 08:59:05;;;;;;;5.05;1.77;;;;;;;;;;5095147;28;20099;-82
2021/04/26 09:01:32;;;;;;;6.28;1.83;;;;;;;;;;5090369;28;20429;-83
2021/04/26 09:04:08;;;;;;;5.65;1.70;;;;;;;;;;5114133;27;20023;-79
2021/04/26 09:07:07;;;;;;;4.35;1.40;;;;;;;;;;5091396;28;20478;-77
2021/04/26 09:09:39;;;;;;;3.97;1.50;;;;;;;;;;5052879;28;20032;-77
2021/04/26 09:12:05;;;;;;;;;;;;;;;;;;5104034;28;20028;-80
2021/04/26 09:14:38;;;;;;;3.00;1.35;;;;;;;;;;5096780;28;19907;-82
2021/04/26 09:17:23;;;;;;;4.97;1.70;;;;;;;;;;5091942;28;20032;-76
2021/04/26 09:19:49;;;;;;;5.88;1.63;;;;;;;;;;5089514;28;20031;-79
2021/04/26 09:22:15;;;;;;;4.57;1.73;;;;;;;;;;5104198;28;20034;-81
2021/04/26 09:24:42;;;;;;;3.88;1.70;;;;;;;;;;5097371;28;20550;-80
2021/04/26 09:27:09;;;;;;;5.38;1.75;;;;;;;;;;5102157;28;20032;-78
2021/04/26 09:29:36;;;;;;;4.43;1.60;;;;;;;;;;5091586;28;20040;-77
2021/04/26 09:32:02;;;;;;;6.07;1.50;;;;;;;;;;5095376;28;20518;-78
2021/04/26 09:34:30;;;;;;;4.45;1.58;;;;;;;;;;5104166;28;20030;-77
2021/04/26 09:37:05;;;;;;;4.35;1.95;;;;;;;;;;5076638;28;20020;-76
2021/04/26 09:39:31;;;;;;;4.72;1.63;;;;;;;;;;5082320;28;20103;-82
2021/04/26 09:41:57;;;;;;;2.70;1.20;;;;;;;;;;5093768;28;20047;-80
2021/04/26 09:44:24;;;;;;;6.57;1.50;;;;;;;;;;5104333;28;20032;-77
2021/04/26 09:46:52;;;;;;;2.38;1.05;;;;;;;;;;5094967;28;20040;-76
2021/04/26 09:49:19;;;;;;;3.92;1.60;;;;;;;;;;5093361;28;20027;-78
2021/04/26 09:51:48;;;;;;;5.60;1.30;;;;;;;;;;5101337;28;20023;-73
2021/04/26 09:54:14;;;;;;;4.28;1.63;;;;;;;;;;5095385;28;20020;-79
2021/04/26 09:56:49;;;;;;;6.22;1.50;;;;;;;;;;5101554;28;20062;-76
2021/04/26 09:59:16;;;;;;;5.45;1.48;;;;;;;;;;5094626;28;20049;-75
2021/04/26 10:01:45;;;;;;;5.05;1.23;;;;;;;;;;5102727;28;20035;-76
2021/04/26 10:04:11;;;;;;;4.53;1.55;;;;;;;;;;5089084;28;20035;-79
2021/04/26 10:06:37;;;;;;;4.30;1.40;;;;;;;;;;5090761;28;20078;-75
2021/04/26 10:09:05;;;;;;;4.43;1.15;;;;;;;;;;5092202;28;20366;-74
2021/04/26 10:11:32;;;;;;;5.82;1.40;;;;;;;;;;5105780;27;20549;-75
2021/04/26 10:14:01;;;;;;;3.65;1.30;;;;;;;;;;5100207;28;20022;-73
2021/04/26 10:16:35;;;;;;;5.13;1.88;;;;;;;;;;5101872;28;20019;-77
2021/04/26 10:19:03;;;;;;;5.07;1.10;;;;;;;;;;5099731;28;20120;-76
2021/04/26 10:21:30;;;;;;;2.60;0.98;;;;;;;;;;5094827;28;20094;-76
2021/04/26 10:23:57;;;;;;;2.75;1.02;;;;;;;;;;5097891;28;20028;-77
2021/04/26 10:26:42;;;;;;;3.45;1.20;;;;;;;;;;5077704;28;20035;-75
2021/04/26 10:29:15;;;;;;;4.88;1.10;;;;;;;;;;5094351;28;20028;-76
2021/04/26 10:31:59;;;;;;;3.47;1.50;;;;;;;;;;5087887;28;20110;-75
2021/04/26 10:34:36;;;;;;;5.85;1.10;;;;;;;;;;5096928;28;20115;-76
2021/04/26 10:37:04;;;;;;;3.70;1.25;;;;;;;;;;5099676;28;20025;-77
2021/04/26 10:39:31;;;;;;;2.97;1.23;;;;;;;;;;5102887;28;20077;-76
2021/04/26 10:41:59;;;;;;;6.30;1.58;;;;;;;;;;5105449;28;20517;-77
2021/04/26 10:44:41;;;;;;;7.47;1.60;;;;;;;;;;5079418;28;20051;-76
2021/04/26 10:47:21;;;;;;;5.28;1.50;;;;;;;;;;5121462;28;20059;-76
2021/04/26 10:49:48;;;;;;;7.97;1.75;;;;;;;;;;5079644;28;20028;-75
2021/04/26 10:52:27;;;;;;;7.93;1.65;;;;;;;;;;5084570;28;20501;-75
2021/04/26 10:55:00;;;;;;;8.18;1.73;;;;;;;;;;5092101;28;20490;-75
2021/04/26 10:57:41;;;;;;;5.18;1.35;;;;;;;;;;5088080;28;20059;-76
2021/04/26 11:02:59;;;;;;;6.32;1.70;;;;;;;;;;5089760;28;20051;-75
2021/04/26 11:05:26;;;;;;;18.15;2.08;;;;;;;;;;5089091;28;20019;-73
2021/04/26 11:10:43;;;;;;;9.52;1.30;;;;;;;;;;5091347;28;20066;-84
2021/04/26 11:13:35;;;;;;;5.15;1.35;;;;;;;;;;5089694;28;20610;-84
2021/04/26 11:16:06;;;;;;;6.93;1.45;;;;;;;;;;5062911;28;20509;-77
2021/04/26 11:18:37;;;;;;;9.32;1.58;;;;;;;;;;5092856;28;20028;-78
2021/04/26 11:21:03;;;;;;;3.50;1.30;;;;;;;;;;5095362;28;20042;-73
2021/04/26 11:23:41;;;;;;;5.38;1.60;;;;;;;;;;5091212;28;20100;-78
2021/04/26 11:26:21;;;;;;;7.03;1.50;;;;;;;;;;5089127;28;20399;-76
2021/04/26 11:29:03;;;;;;;9.13;1.30;;;;;;;;;;5094294;28;20018;-81
2021/04/26 11:31:41;;;;;;;6.85;1.67;;;;;;;;;;5102269;28;20032;-81
2021/04/26 11:34:17;;;;;;;3.92;1.60;;;;;;;;;;5092844;28;20070;-84
2021/04/26 11:37:02;;;;;;;6.50;1.38;;;;;;;;;;5106255;28;20040;-75
2021/04/26 11:39:33;;;;;;;5.00;1.40;;;;;;;;;;5099233;28;20020;-75
2021/04/26 11:41:59;;;;;;;4.72;1.48;;;;;;;;;;5098667;28;20067;-84
2021/04/26 11:44:29;;;;;;;4.65;1.33;;;;;;;;;;5101764;28;20550;-75
2021/04/26 11:47:22;;;;;;;6.53;1.30;;;;;;;;;;5108162;28;20035;-78
2021/04/26 11:49:48;;;;;;;;;;;;;;;;;;5094720;28;20057;-73
2021/04/26 11:52:15;;;;;;;5.93;1.25;;;;;;;;;;5086555;28;20616;-76
2021/04/26 11:54:43;;;;;;;7.55;1.20;;;;;;;;;;5096102;28;20028;-76
2021/04/26 11:57:12;;;;;;;8.90;1.77;;;;;;;;;;5101160;28;20055;-75
2021/04/26 11:59:48;;;;;;;3.67;1.33;;;;;;;;;;5105139;28;20024;-75
2021/04/26 12:02:23;;;;;;;6.93;1.80;;;;;;;;;;5096227;28;20020;-78
2021/04/26 12:04:49;;;;;;;6.38;1.15;;;;;;;;;;5091704;28;20047;-74
2021/04/26 12:07:15;;;;;;;3.10;1.08;;;;;;;;;;5099484;28;20035;-72
2021/04/26 12:09:44;;;;;;;5.93;1.27;;;;;;;;;;5094605;28;20065;-73
2021/04/26 12:12:10;;;;;;;3.08;1.20;;;;;;;;;;5103113;28;20020;-72
2021/04/26 12:14:37;;;;;;;4.40;0.90;;;;;;;;;;5095798;28;20020;-75
2021/04/26 12:17:19;;;;;;;3.95;1.10;;;;;;;;;;5107747;28;20103;-73
2021/04/26 12:19:46;;;;;;;4.60;1.10;;;;;;;;;;5095004;28;20017;-73
2021/04/26 12:22:12;;;;;;;3.13;0.95;;;;;;;;;;5097208;28;20076;-74
2021/04/26 12:24:40;;;;;;;3.40;1.40;;;;;;;;;;5109332;28;20020;-76
2021/04/26 12:27:10;;;;;;;5.05;1.05;;;;;;;;;;5097916;28;20050;-76
2021/04/26 12:29:36;;;;;;;5.03;1.58;;;;;;;;;;5102384;28;20107;-77
2021/04/26 12:32:28;;;;;;;3.42;1.48;;;;;;;;;;5106663;28;20023;-75
2021/04/26 12:34:56;;;;;;;2.45;1.00;;;;;;;;;;5094012;27;20509;-75
2021/04/26 12:37:25;;;;;;;3.75;1.10;;;;;;;;;;5100923;28;20020;-76
2021/04/26 12:39:51;;;;;;;5.00;1.30;;;;;;;;;;5098650;28;20020;-74
2021/04/26 12:42:19;;;;;;;3.67;1.40;;;;;;;;;;5088466;28;20063;-73
2021/04/26 12:44:46;;;;;;;4.30;1.20;;;;;;;;;;5087777;28;20648;-78
2021/04/26 12:47:16;;;;;;;6.05;1.67;;;;;;;;;;5098078;28;20036;-76
2021/04/26 12:49:42;;;;;;;3.83;1.20;;;;;;;;;;5103774;28;20466;-77
2021/04/26 12:52:12;;;;;;;8.07;1.42;;;;;;;;;;5098363;28;20110;-80
2021/04/26 12:54:39;;;;;;;6.78;1.88;;;;;;;;;;5100343;28;20020;-81
2021/04/26 12:57:05;;;;;;;8.25;1.50;;;;;;;;;;5094294;28;20134;-87
2021/04/26 12:59:48;;;;;;;3.63;1.40;;;;;;;;;;5091214;28;20025;-79
2021/04/26 13:02:20;;;;;;;5.57;1.40;;;;;;;;;;5093647;28;20073;-79
2021/04/26 13:04:46;;;;;;;3.70;1.40;;;;;;;;;;5107329;28;20024;-80
2021/04/26 13:07:12;;;;;;;9.70;1.67;;;;;;;;;;5089054;28;20036;-78
2021/04/26 13:09:38;;;;;;;6.80;1.85;;;;;;;;;;5089828;28;20132;-79
2021/04/26 13:12:04;;;;;;;7.43;1.33;;;;;;;;;;5091474;28;20024;-78
2021/04/26 13:14:33;;;;;;;5.60;1.35;;;;;;;;;;5091210;28;20007;-78
2021/04/26 13:17:12;;;;;;;17.75;2.40;;;;;;;;;;5091479;28;20024;-73
2021/04/26 13:19:48;;;;;;;7.13;1.95;;;;;;;;;;5080315;28;20015;-75
2021/04/26 13:22:28;;;;;;;5.07;1.98;;;;;;;;;;5089678;28;20077;-75
2021/04/26 13:24:57;;;;;;;6.47;1.42;;;;;;;;;;5083089;28;20413;-74
2021/04/26 13:27:23;;;;;;;6.65;1.75;;;;;;;;;;5100013;28;20478;-70
2021/04/26 13:29:51;;;;;;;8.48;2.10;;;;;;;;;;5099861;28;20110;-76
2021/04/26 13:32:18;;;;;;;8.75;1.77;;;;;;;;;;5096425;28;20031;-79
2021/04/26 13:34:47;;;;;;;6.57;1.70;;;;;;;;;;5084838;28;20028;-78
2021/04/26 13:37:13;;;;;;;5.80;1.92;;;;;;;;;;5104034;28;20016;-77
2021/04/26 13:39:39;;;;;;;4.75;1.42;;;;;;;;;;5106476;28;20096;-80
2021/04/26 13:42:06;;;;;;;8.10;1.90;;;;;;;;;;5094709;28;20067;-77
2021/04/26 13:44:32;;;;;;;7.32;1.80;;;;;;;;;;5082747;28;20032;-78
2021/04/26 13:46:58;;;;;;;6.60;2.10;;;;;;;;;;5106120;28;20069;-75
2021/04/26 13:49:25;;;;;;;4.68;1.73;;;;;;;;;;5091623;28;20040;-75
2021/04/26 13:51:52;;;;;;;7.30;2.03;;;;;;;;;;5099223;28;20066;-78
2021/04/26 13:54:19;;;;;;;5.07;1.65;;;;;;;;;;5093256;28;20454;-79
2021/04/26 13:56:45;;;;;;;6.15;1.92;;;;;;;;;;5095453;28;20034;-79
2021/04/26 13:59:11;;;;;;;6.07;1.90;;;;;;;;;;5104484;28;20031;-77
2021/04/26 14:01:38;;;;;;;6.78;2.13;;;;;;;;;;5096033;28;20070;-77
2021/04/26 14:04:04;;;;;;;8.73;2.10;;;;;;;;;;5104217;28;20149;-75
2021/04/26 14:06:31;;;;;;;7.53;2.05;;;;;;;;;;5103865;28;20065;-78
2021/04/26 14:08:57;;;;;;;5.10;2.25;;;;;;;;;;5093685;28;20526;-74
2021/04/26 14:11:23;;;;;;;10.35;2.35;;;;;;;;;;5097688;28;20024;-78
2021/04/26 14:13:49;;;;;;;4.63;1.98;;;;;;;;;;5098919;28;20016;-74
2021/04/26 14:16:16;;;;;;;8.65;2.10;;;;;;;;;;5103455;28;20028;-75
2021/04/26 14:18:42;;;;;;;12.25;2.05;;;;;;;;;;5094127;28;20070;-75
2021/04/26 14:21:08;;;;;;;7.25;2.22;;;;;;;;;;5093082;28;20072;-74
2021/04/26 14:23:34;;;;;;;5.25;2.35;;;;;;;;;;5099784;28;20020;-73
2021/04/26 14:26:01;;;;;;;6.72;2.50;;;;;;;;;;5082294;28;20028;-72
2021/04/26 14:28:27;;;;;;;5.70;2.13;;;;;;;;;;5104347;28;20466;-75
2021/04/26 14:30:53;;;;;;;5.88;1.98;;;;;;;;;;5090081;28;20023;-71
2021/04/26 14:33:19;;;;;;;6.32;2.35;;;;;;;;;;5098542;28;20027;-82
2021/04/26 14:35:46;;;;;;;7.00;2.38;;;;;;;;;;5097601;28;20438;-77
2021/04/26 14:38:18;;;;;;;6.15;2.38;;;;;;;;;;5105355;28;20031;-74
2021/04/26 14:40:45;;;;;;;5.75;2.13;;;;;;;;;;5089758;28;20019;-78
2021/04/26 14:43:11;;;;;;;5.93;2.30;;;;;;;;;;5084462;28;20502;-76
2021/04/26 14:45:37;;;;;;;7.05;2.40;;;;;;;;;;5100092;28;20061;-70
2021/04/26 14:48:03;;;;;;;8.32;2.65;;;;;;;;;;5091652;28;20040;-69
2021/04/26 14:50:30;;;;;;;8.75;3.25;;;;;;;;;;5070578;28;20051;-72
2021/04/26 14:52:56;;;;;;;7.43;1.90;;;;;;;;;;5076956;28;20047;-72